Terminal Aerodrome Forecast
Issued by NWS

Home | Current Version | Previous Version | Text Only | Print | Product List | Glossary On
Versions: 1 2 3 4 5 6 7 8 9 10 11 12 13 14
000
FTUS43 KGRR 291100
TAFMKG
TAF
KMKG 291135Z 2912/3012 13009KT P6SM OVC045
      TEMPO 2912/2915 5SM -SHRA
     FM291500 14011KT 5SM -SHRA BR OVC035
      TEMPO 2915/2918 2SM SHRA BR OVC025
     FM292100 17012KT P6SM BKN050 OVC140
     FM300800 18011KT P6SM OVC025=

USA.gov is the U.S. government's official web portal to all federal, state and local government web resources and services.